Time;durP1;ratioP1;P1;durP2;ratioP2;P2;SDS_P1;SDS_P2;PMS_P1;PMS_P2;Temp;Humidity;BMP_temperature;BMP_pressure;BME280_temperature;BME280_humidity;BME280_pressure;Samples;Min_cycle;Max_cycle;Signal;HPM_P1;HPM_P2
2021/10/08 00:01:07;;;;;;;42.92;26.02;;;;;;;9.52;99.24;102652.81;4986842;28;20550;-74
2021/10/08 00:03:34;;;;;;;43.75;24.75;;;;;;;9.53;99.48;102656.28;4991189;28;20049;-73
2021/10/08 00:06:00;;;;;;;44.80;25.13;;;;;;;9.47;99.67;102654.47;4988259;28;20054;-73
2021/10/08 00:08:28;;;;;;;44.58;24.90;;;;;;;9.47;100.00;102654.47;4988513;28;20050;-75
2021/10/08 00:10:54;;;;;;;42.30;25.17;;;;;;;9.49;100.00;102653.63;4994125;28;20083;-74
2021/10/08 00:13:21;;;;;;;48.10;25.65;;;;;;;9.46;100.00;102653.59;4991089;28;20129;-75
2021/10/08 00:15:47;;;;;;;42.28;24.67;;;;;;;9.47;100.00;102654.47;4995325;28;20058;-73
2021/10/08 00:18:14;;;;;;;42.72;26.05;;;;;;;9.46;100.00;102650.09;4993885;28;20049;-75
2021/10/08 00:20:40;;;;;;;44.13;24.75;;;;;;;9.42;100.00;102656.13;4997731;28;20057;-72
2021/10/08 00:23:07;;;;;;;49.25;25.42;;;;;;;9.32;100.00;102655.97;4987292;28;20058;-74
2021/10/08 00:25:39;;;;;;;46.65;26.23;;;;;;;9.27;100.00;102655.00;4994303;28;20056;-75
2021/10/08 00:28:05;;;;;;;43.65;23.92;;;;;;;9.31;100.00;102654.22;5000103;28;20062;-73
2021/10/08 00:30:32;;;;;;;33.92;21.70;;;;;;;9.29;100.00;102650.72;4985539;28;20870;-74
2021/10/08 00:32:58;;;;;;;38.58;20.38;;;;;;;9.31;99.61;102650.72;4997784;28;20076;-76
2021/10/08 00:35:25;;;;;;;38.28;21.70;;;;;;;9.21;99.35;102657.50;4990766;28;20050;-74
2021/10/08 00:37:51;;;;;;;37.20;19.60;;;;;;;9.22;98.90;102658.38;4996738;28;20064;-74
2021/10/08 00:40:18;;;;;;;36.70;20.08;;;;;;;9.17;98.75;102660.88;4995314;28;20061;-73
2021/10/08 00:42:47;;;;;;;36.60;20.08;;;;;;;9.16;98.67;102651.34;4993910;28;20065;-74
2021/10/08 00:45:14;;;;;;;35.97;20.58;;;;;;;9.15;98.64;102657.38;5000226;28;20054;-73
2021/10/08 00:47:41;;;;;;;34.83;19.50;;;;;;;9.16;98.61;102659.13;4994846;28;20046;-75
2021/10/08 00:50:08;;;;;;;31.65;18.92;;;;;;;9.15;97.80;102659.97;4985218;28;20050;-73
2021/10/08 00:52:35;;;;;;;33.15;20.13;;;;;;;9.18;96.98;102655.69;4998790;28;20133;-75
2021/10/08 00:55:02;;;;;;;32.05;17.73;;;;;;;9.18;96.63;102660.91;4996618;28;20104;-73
2021/10/08 00:57:28;;;;;;;32.97;18.08;;;;;;;9.16;96.61;102665.22;4992295;28;20054;-76
2021/10/08 00:59:56;;;;;;;30.80;18.40;;;;;;;9.10;96.43;102669.41;4998598;28;20058;-74
2021/10/08 01:02:25;;;;;;;29.25;17.48;;;;;;;9.11;95.52;102666.84;4993011;28;20066;-74
2021/10/08 01:04:56;;;;;;;27.67;16.15;;;;;;;9.08;95.94;102665.91;4993438;28;20423;-75
2021/10/08 01:07:22;;;;;;;27.65;17.13;;;;;;;9.10;94.77;102672.00;4990170;28;20057;-73
2021/10/08 01:09:49;;;;;;;25.08;15.63;;;;;;;9.08;94.19;102671.09;4994519;28;20046;-75
2021/10/08 01:12:15;;;;;;;27.90;16.20;;;;;;;9.02;94.05;102672.75;4995473;28;20058;-75
2021/10/08 01:14:42;;;;;;;31.88;17.80;;;;;;;8.97;94.32;102674.38;4999409;28;20042;-75
2021/10/08 01:17:14;;;;;;;35.80;20.70;;;;;;;8.94;94.79;102671.72;4993625;28;20048;-73
2021/10/08 01:19:41;;;;;;;39.70;21.27;;;;;;;8.87;95.86;102672.44;4997530;28;20514;-75
2021/10/08 01:22:09;;;;;;;35.78;21.65;;;;;;;8.86;97.08;102670.69;4992074;28;20052;-72
2021/10/08 01:24:35;;;;;;;37.22;22.13;;;;;;;8.81;97.13;102657.63;4997329;28;20064;-74
2021/10/08 01:27:02;;;;;;;38.17;21.90;;;;;;;8.74;97.73;102657.47;4991937;28;20046;-74
2021/10/08 01:29:29;;;;;;;35.15;21.52;;;;;;;8.70;97.98;102664.31;4998204;28;20180;-75
2021/10/08 01:31:56;;;;;;;34.63;19.30;;;;;;;8.71;98.03;102663.50;4990297;28;20346;-74
2021/10/08 01:34:22;;;;;;;29.67;18.52;;;;;;;8.72;97.03;102662.66;4994230;28;20050;-75
2021/10/08 01:36:49;;;;;;;35.20;19.42;;;;;;;8.76;96.23;102664.47;4987496;28;20454;-73
2021/10/08 01:39:17;;;;;;;30.80;18.13;;;;;;;8.73;96.29;102664.41;4996237;28;20176;-74
2021/10/08 01:41:43;;;;;;;34.50;19.33;;;;;;;8.67;95.97;102659.09;4988248;28;20050;-74
2021/10/08 01:44:10;;;;;;;32.67;18.30;;;;;;;8.62;96.27;102661.59;5008016;28;20061;-73
2021/10/08 01:46:36;;;;;;;31.88;19.20;;;;;;;8.66;95.52;102666.00;4998458;28;20084;-72
2021/10/08 01:49:03;;;;;;;27.70;16.52;;;;;;;8.66;95.44;102659.94;4986180;28;20041;-74
2021/10/08 01:51:29;;;;;;;29.15;17.00;;;;;;;8.66;95.59;102663.41;4996618;28;20096;-74
2021/10/08 01:53:55;;;;;;;26.20;16.58;;;;;;;8.64;95.46;102664.22;4998517;28;20538;-73
2021/10/08 01:56:23;;;;;;;26.88;16.30;;;;;;;8.60;95.02;102671.06;4994482;28;20049;-74
2021/10/08 01:58:50;;;;;;;29.88;17.55;;;;;;;8.59;94.94;102674.50;4994129;28;20042;-75
2021/10/08 02:01:16;;;;;;;31.48;17.40;;;;;;;8.56;94.49;102669.25;4988686;28;20062;-78
2021/10/08 02:03:46;;;;;;;28.67;16.70;;;;;;;8.48;94.80;102666.50;4993852;28;20056;-76
2021/10/08 02:06:12;;;;;;;28.60;15.90;;;;;;;8.51;93.81;102668.28;4988919;28;20819;-74
2021/10/08 02:08:39;;;;;;;27.88;15.80;;;;;;;8.48;93.55;102673.41;4997778;28;20050;-74
2021/10/08 02:11:06;;;;;;;22.70;15.50;;;;;;;8.40;94.22;102674.09;4993879;28;20054;-74
2021/10/08 02:13:33;;;;;;;26.05;15.43;;;;;;;8.40;93.62;102668.00;4986050;28;20060;-76
2021/10/08 02:16:00;;;;;;;24.58;14.77;;;;;;;8.40;93.91;102671.50;4986656;28;20054;-75
2021/10/08 02:18:28;;;;;;;24.48;13.95;;;;;;;8.43;92.77;102675.00;4993137;28;20053;-75
2021/10/08 02:20:55;;;;;;;26.65;15.63;;;;;;;8.42;93.16;102671.53;4993148;28;20054;-74
2021/10/08 02:23:22;;;;;;;26.88;14.98;;;;;;;8.37;92.99;102670.56;4999228;28;20052;-76
2021/10/08 02:25:48;;;;;;;27.77;15.50;;;;;;;8.31;93.87;102671.31;4997153;28;20042;-74
2021/10/08 02:28:15;;;;;;;24.98;15.02;;;;;;;8.36;93.44;102674.84;4993752;28;20113;-75
2021/10/08 02:30:43;;;;;;;22.73;13.77;;;;;;;8.28;93.66;102667.78;5000158;28;20053;-74
2021/10/08 02:33:09;;;;;;;24.80;14.65;;;;;;;8.11;94.17;102673.44;4990842;28;20064;-74
2021/10/08 02:35:36;;;;;;;29.50;14.80;;;;;;;8.05;94.35;102671.59;4998015;28;20046;-74
2021/10/08 02:38:02;;;;;;;28.80;15.82;;;;;;;8.17;94.76;102672.72;4984775;28;20050;-73
2021/10/08 02:40:28;;;;;;;23.08;14.52;;;;;;;8.20;93.84;102667.59;4999556;28;20046;-75
2021/10/08 02:42:55;;;;;;;23.75;14.07;;;;;;;8.16;94.30;102668.38;4996950;28;20061;-74
2021/10/08 02:45:21;;;;;;;26.88;15.02;;;;;;;8.13;94.43;102676.09;4996967;28;20810;-74
2021/10/08 02:47:49;;;;;;;22.20;14.05;;;;;;;8.10;94.46;102671.69;4996241;28;20049;-76
2021/10/08 02:50:16;;;;;;;23.35;14.60;;;;;;;8.09;94.38;102677.72;4995594;28;20053;-74
2021/10/08 02:52:42;;;;;;;24.40;13.90;;;;;;;8.13;94.44;102676.09;4996972;28;20048;-75
2021/10/08 02:55:10;;;;;;;26.83;14.52;;;;;;;8.07;94.46;102664.72;4994492;28;20059;-73
2021/10/08 02:57:37;;;;;;;25.33;15.50;;;;;;;7.97;94.35;102672.28;5010995;28;20041;-74
2021/10/08 03:00:05;;;;;;;24.05;14.07;;;;;;;8.01;94.44;102669.78;5000341;28;20149;-74
2021/10/08 03:02:32;;;;;;;21.45;13.00;;;;;;;8.00;94.04;102662.84;4996391;28;20050;-74
2021/10/08 03:04:59;;;;;;;24.75;12.95;;;;;;;8.00;94.11;102665.44;4991781;28;22285;-73
2021/10/08 03:07:26;;;;;;;21.52;13.63;;;;;;;8.03;93.62;102659.44;4997771;28;20046;-74
2021/10/08 03:09:53;;;;;;;22.50;13.02;;;;;;;7.99;93.83;102665.38;4996873;28;20129;-74
2021/10/08 03:12:19;;;;;;;21.73;13.05;;;;;;;8.01;93.33;102662.00;4995779;28;20788;-75
2021/10/08 03:14:47;;;;;;;20.25;12.65;;;;;;;7.94;93.50;102667.88;4996374;28;20086;-74
2021/10/08 03:17:14;;;;;;;24.45;14.05;;;;;;;7.98;93.20;102666.25;4997420;28;20057;-75
2021/10/08 03:19:40;;;;;;;28.17;13.60;;;;;;;7.91;93.58;102670.41;4989669;28;20041;-75
2021/10/08 03:22:09;;;;;;;25.42;14.15;;;;;;;7.90;93.60;102663.47;4995528;28;20068;-74
2021/10/08 03:24:35;;;;;;;24.20;15.07;;;;;;;7.90;93.01;102666.94;4996329;28;20058;-75
2021/10/08 03:27:02;;;;;;;22.90;13.07;;;;;;;7.86;93.33;102672.00;4998345;28;20814;-73
2021/10/08 03:29:29;;;;;;;25.67;14.18;;;;;;;7.81;92.87;102674.50;4989153;28;20050;-74
2021/10/08 03:31:55;;;;;;;26.73;14.82;;;;;;;7.76;93.40;102674.38;4992153;28;20062;-73
2021/10/08 03:34:22;;;;;;;30.50;16.10;;;;;;;7.75;93.40;102670.03;4989493;28;20053;-73
2021/10/08 03:36:49;;;;;;;31.33;15.63;;;;;;;7.82;94.27;102667.63;4986581;28;20834;-72
2021/10/08 03:39:20;;;;;;;29.58;14.70;;;;;;;7.77;94.30;102670.97;4993252;28;20057;-72
2021/10/08 03:41:47;;;;;;;47.03;19.02;;;;;;;7.78;93.97;102670.13;4991486;28;20046;-72
2021/10/08 03:44:14;;;;;;;37.70;18.65;;;;;;;7.85;95.63;102668.56;4994911;28;20139;-74
2021/10/08 03:46:44;;;;;;;37.22;18.38;;;;;;;7.82;96.28;102672.78;4989318;28;20054;-73
2021/10/08 03:49:14;;;;;;;38.15;19.08;;;;;;;7.73;96.88;102674.34;4992225;28;22262;-74
2021/10/08 03:51:42;;;;;;;33.78;18.00;;;;;;;7.75;97.27;102679.53;4990354;28;20049;-73
2021/10/08 03:54:09;;;;;;;31.70;16.08;;;;;;;7.74;97.11;102672.59;4993119;28;20046;-71
2021/10/08 03:56:37;;;;;;;32.47;15.57;;;;;;;7.69;97.31;102677.69;4989512;28;20050;-74
2021/10/08 03:59:04;;;;;;;32.30;16.50;;;;;;;7.68;97.54;102677.66;4988933;28;20063;-74
2021/10/08 04:01:31;;;;;;;30.90;16.80;;;;;;;7.67;97.48;102679.34;4993823;28;20058;-74
2021/10/08 04:03:57;;;;;;;26.77;14.40;;;;;;;7.67;96.99;102681.06;4989898;28;20057;-74
2021/10/08 04:06:24;;;;;;;28.92;14.45;;;;;;;7.60;96.45;102677.47;4992705;28;20045;-73
2021/10/08 04:08:51;;;;;;;31.77;15.88;;;;;;;7.53;96.75;102680.75;4997877;28;20057;-74
2021/10/08 04:11:17;;;;;;;27.40;14.60;;;;;;;7.54;96.88;102685.06;4991975;28;20046;-75
2021/10/08 04:13:45;;;;;;;27.27;14.52;;;;;;;7.54;96.14;102682.47;4986822;28;20049;-73
2021/10/08 04:16:12;;;;;;;25.17;13.85;;;;;;;7.59;96.02;102688.66;4986482;28;20054;-74
2021/10/08 04:18:38;;;;;;;26.77;14.13;;;;;;;7.57;96.16;102680.84;4993276;28;20054;-73
2021/10/08 04:21:04;;;;;;;29.48;14.88;;;;;;;7.59;95.55;102688.66;4992281;28;20144;-75
2021/10/08 04:23:31;;;;;;;23.60;14.25;;;;;;;7.57;95.52;102698.09;4994236;28;20701;-74
2021/10/08 04:25:57;;;;;;;26.45;14.25;;;;;;;7.55;95.77;102692.00;4990162;28;20060;-71
2021/10/08 04:28:24;;;;;;;28.20;14.02;;;;;;;7.58;95.13;102697.25;4995273;28;20116;-72
2021/10/08 04:30:52;;;;;;;26.38;14.07;;;;;;;7.56;95.14;102691.16;4991213;28;20046;-70
2021/10/08 04:33:21;;;;;;;22.55;13.30;;;;;;;7.53;94.58;102693.69;4991289;28;20058;-72
2021/10/08 04:35:48;;;;;;;21.65;13.05;;;;;;;7.49;94.75;102695.28;4996021;28;20523;-73
2021/10/08 04:38:15;;;;;;;28.70;14.57;;;;;;;7.53;94.30;102699.72;4995457;28;20069;-74
2021/10/08 04:40:42;;;;;;;25.52;13.75;;;;;;;7.53;94.77;102694.56;5002941;28;20049;-73
2021/10/08 04:43:09;;;;;;;23.38;13.68;;;;;;;7.54;94.92;102695.41;5010848;28;20069;-72
2021/10/08 04:45:36;;;;;;;25.25;13.10;;;;;;;7.54;95.73;102700.59;4988480;28;20058;-71
2021/10/08 04:48:04;;;;;;;30.08;13.63;;;;;;;7.53;94.69;102693.69;4993746;28;20042;-73
2021/10/08 04:50:31;;;;;;;24.05;13.15;;;;;;;7.47;95.21;102695.28;4992106;28;20046;-73
2021/10/08 04:52:57;;;;;;;30.52;13.23;;;;;;;7.34;95.27;102698.38;4991706;28;20046;-72
2021/10/08 04:55:24;;;;;;;24.63;13.82;;;;;;;7.34;94.97;102693.19;5000109;28;20490;-73
2021/10/08 04:57:50;;;;;;;29.75;13.18;;;;;;;7.31;94.97;102698.31;4989595;28;20053;-71
2021/10/08 05:00:17;;;;;;;23.90;12.27;;;;;;;7.30;94.79;102696.56;4994661;28;20057;-70
2021/10/08 05:02:44;;;;;;;23.10;12.15;;;;;;;7.29;94.54;102694.81;4994608;28;20042;-70
2021/10/08 05:05:12;;;;;;;21.92;11.80;;;;;;;7.31;94.23;102695.72;4990966;28;20042;-71
2021/10/08 05:07:38;;;;;;;25.77;12.18;;;;;;;7.34;94.23;102695.78;4990720;28;21427;-72
2021/10/08 05:10:06;;;;;;;20.50;12.18;;;;;;;7.32;94.86;102693.16;4992458;28;20042;-70
2021/10/08 05:12:32;;;;;;;20.33;11.10;;;;;;;7.30;95.06;102693.97;4997284;28;20053;-72
2021/10/08 05:14:58;;;;;;;18.13;11.10;;;;;;;7.27;95.03;102699.06;4986487;28;20573;-72
2021/10/08 05:17:25;;;;;;;21.90;13.10;;;;;;;7.18;95.84;102693.63;4993372;28;20502;-73
2021/10/08 05:19:51;;;;;;;19.63;11.93;;;;;;;7.20;96.38;102697.16;4988996;28;20057;-70
2021/10/08 05:22:19;;;;;;;19.35;11.77;;;;;;;7.21;97.11;102701.50;4991355;28;20061;-73
2021/10/08 05:24:46;;;;;;;20.20;10.93;;;;;;;7.22;97.29;102706.69;4991900;28;20054;-73
2021/10/08 05:27:12;;;;;;;17.42;10.95;;;;;;;7.24;96.96;102701.56;4997708;28;20439;-70
2021/10/08 05:29:39;;;;;;;19.05;10.90;;;;;;;7.25;96.86;102703.31;4993500;28;20045;-72
2021/10/08 05:32:06;;;;;;;21.02;10.55;;;;;;;7.25;96.71;102705.91;4993816;28;20159;-74
2021/10/08 05:34:32;;;;;;;24.98;14.32;;;;;;;7.25;96.52;102708.47;4995086;28;20061;-72
2021/10/08 05:36:59;;;;;;;18.23;11.60;;;;;;;7.24;97.03;102711.91;4984866;28;20804;-73
2021/10/08 05:39:27;;;;;;;25.00;12.88;;;;;;;7.15;97.25;102715.16;4982539;28;20059;-73
2021/10/08 05:41:53;;;;;;;19.17;11.10;;;;;;;7.16;97.56;102711.72;5012925;28;20061;-71
2021/10/08 05:44:19;;;;;;;19.95;10.70;;;;;;;7.20;96.79;102710.09;5003699;28;20057;-73
2021/10/08 05:46:46;;;;;;;19.75;11.68;;;;;;;7.22;96.17;102711.88;4988264;28;20051;-73
2021/10/08 05:49:12;;;;;;;20.33;11.25;;;;;;;7.16;95.96;102714.31;5011578;28;20056;-73
2021/10/08 05:51:39;;;;;;;17.60;10.00;;;;;;;7.16;95.75;102714.31;4999594;28;20057;-72
2021/10/08 05:54:05;;;;;;;19.63;10.57;;;;;;;7.20;95.42;102715.28;5005135;28;20058;-73
2021/10/08 05:56:33;;;;;;;18.50;11.00;;;;;;;7.20;95.03;102723.03;5006408;28;20049;-71
2021/10/08 05:58:59;;;;;;;17.80;10.85;;;;;;;7.07;95.34;102720.09;5000747;28;20057;-73
2021/10/08 06:01:26;;;;;;;20.58;11.48;;;;;;;6.99;95.77;102725.06;4994701;28;20570;-73
2021/10/08 06:03:52;;;;;;;23.90;12.00;;;;;;;7.02;96.13;102726.88;5000674;28;20056;-73
2021/10/08 06:06:19;;;;;;;16.90;10.77;;;;;;;7.10;96.25;102721.88;4998146;28;20049;-74
2021/10/08 06:08:45;;;;;;;18.55;11.02;;;;;;;7.12;95.75;102721.13;4995351;28;20046;-74
2021/10/08 06:11:12;;;;;;;18.95;11.05;;;;;;;7.13;95.46;102720.28;4993769;28;20058;-73
2021/10/08 06:13:40;;;;;;;18.02;11.73;;;;;;;7.11;94.94;102723.66;4999353;28;20053;-73
2021/10/08 06:16:07;;;;;;;16.63;10.98;;;;;;;7.06;94.44;102723.53;4991962;28;20062;-74
2021/10/08 06:18:33;;;;;;;20.10;10.02;;;;;;;7.06;94.19;102730.44;4994141;28;20058;-73
2021/10/08 06:21:00;;;;;;;15.63;10.43;;;;;;;7.01;94.42;102732.88;4997492;28;20062;-75
2021/10/08 06:23:26;;;;;;;14.52;9.60;;;;;;;6.95;94.83;102736.16;4998880;28;20046;-72
2021/10/08 06:25:53;;;;;;;16.60;10.57;;;;;;;6.94;94.49;102733.53;4992837;28;20061;-74
2021/10/08 06:28:19;;;;;;;17.90;11.20;;;;;;;6.95;94.88;102743.03;4994539;28;20046;-74
2021/10/08 06:30:47;;;;;;;17.17;11.57;;;;;;;6.80;95.66;102744.38;4995942;28;20548;-73
2021/10/08 06:33:13;;;;;;;17.48;11.50;;;;;;;6.84;96.16;102747.91;4998784;28;20058;-73
2021/10/08 06:35:41;;;;;;;18.63;11.43;;;;;;;6.97;95.44;102762.06;4994665;28;20526;-73
2021/10/08 06:38:09;;;;;;;18.23;11.45;;;;;;;7.03;96.07;102751.03;4995014;28;20140;-73
2021/10/08 06:40:36;;;;;;;30.55;12.75;;;;;;;7.08;96.69;102745.16;4994744;28;20049;-74
2021/10/08 06:43:03;;;;;;;21.88;11.60;;;;;;;7.14;97.16;102752.22;4997083;28;20057;-72
2021/10/08 06:45:29;;;;;;;21.08;11.73;;;;;;;7.28;97.08;102755.16;4997366;28;20054;-73
2021/10/08 06:47:57;;;;;;;21.95;12.38;;;;;;;7.33;97.62;102753.59;4991828;28;20492;-73
2021/10/08 06:50:24;;;;;;;22.13;12.60;;;;;;;7.38;97.57;102751.13;4988655;28;20101;-73
2021/10/08 06:52:50;;;;;;;23.58;13.50;;;;;;;7.39;98.83;102761.53;4999529;28;20432;-73
2021/10/08 06:55:17;;;;;;;22.77;12.93;;;;;;;7.45;98.97;102751.31;4994771;28;20064;-73
2021/10/08 06:57:43;;;;;;;24.42;14.32;;;;;;;7.50;98.74;102751.44;4996586;28;20065;-73
2021/10/08 07:00:11;;;;;;;29.13;14.77;;;;;;;7.54;99.29;102758.47;4991904;28;20055;-75
2021/10/08 07:02:46;;;;;;;33.30;15.35;;;;;;;7.56;99.33;102751.63;4999657;28;20065;-74
2021/10/08 07:05:14;;;;;;;31.88;17.58;;;;;;;7.65;100.00;102758.72;4992272;28;20046;-73
2021/10/08 07:07:41;;;;;;;32.28;17.02;;;;;;;7.68;100.00;102760.53;4987398;28;20093;-73
2021/10/08 07:10:08;;;;;;;35.17;18.10;;;;;;;7.70;100.00;102762.31;4996581;28;20042;-73
2021/10/08 07:12:34;;;;;;;37.83;21.13;;;;;;;7.72;100.00;102763.25;4994535;28;20050;-73
2021/10/08 07:15:04;;;;;;;34.05;18.30;;;;;;;7.81;100.00;102760.00;4999512;28;20065;-75
2021/10/08 07:17:31;;;;;;;31.83;19.13;;;;;;;7.88;100.00;102754.16;4991605;28;20716;-73
2021/10/08 07:19:57;;;;;;;37.47;19.92;;;;;;;7.99;100.00;102769.03;4996450;28;20263;-74
2021/10/08 07:22:25;;;;;;;31.30;19.98;;;;;;;8.02;100.00;102772.63;4997956;28;20084;-72
2021/10/08 07:24:52;;;;;;;36.63;19.80;;;;;;;8.08;100.00;102767.56;4995448;28;20054;-73
2021/10/08 07:27:18;;;;;;;35.42;18.98;;;;;;;8.15;100.00;102773.78;4991202;28;20054;-73
2021/10/08 07:29:45;;;;;;;38.30;19.85;;;;;;;8.23;100.00;102772.25;4995147;28;20046;-74
2021/10/08 07:32:11;;;;;;;42.13;22.02;;;;;;;8.29;100.00;102766.31;4995219;28;20136;-74
2021/10/08 07:34:39;;;;;;;39.65;21.85;;;;;;;8.35;100.00;102765.59;4994977;28;20512;-74
2021/10/08 07:37:05;;;;;;;36.97;20.15;;;;;;;8.45;100.00;102764.06;4992809;28;20077;-73
2021/10/08 07:39:33;;;;;;;43.92;22.08;;;;;;;8.48;100.00;102767.66;4986692;28;20589;-73
2021/10/08 07:42:00;;;;;;;41.38;23.15;;;;;;;8.52;100.00;102763.41;4991434;28;20085;-73
2021/10/08 07:44:26;;;;;;;44.35;23.67;;;;;;;8.52;100.00;102772.06;4993058;28;20059;-73
2021/10/08 07:46:53;;;;;;;42.78;25.05;;;;;;;8.59;100.00;102769.59;4995990;28;20050;-74
2021/10/08 07:49:20;;;;;;;50.30;27.38;;;;;;;8.68;100.00;102770.69;4995483;28;20720;-72
2021/10/08 07:51:46;;;;;;;49.47;26.55;;;;;;;8.79;100.00;102768.31;4993149;28;20057;-73
2021/10/08 07:54:13;;;;;;;46.58;26.63;;;;;;;8.83;100.00;102767.53;4990863;28;20054;-74
2021/10/08 07:56:41;;;;;;;51.42;27.08;;;;;;;8.88;100.00;102767.63;4991166;28;20054;-73
2021/10/08 07:59:07;;;;;;;49.72;27.40;;;;;;;8.97;100.00;102770.41;4988760;28;20050;-73
2021/10/08 08:01:34;;;;;;;57.47;27.15;;;;;;;9.06;100.00;102766.25;4990941;28;20057;-73
2021/10/08 08:04:00;;;;;;;56.40;27.67;;;;;;;9.07;100.00;102766.28;4999370;28;20432;-73
2021/10/08 08:06:27;;;;;;;54.83;26.85;;;;;;;9.15;100.00;102764.72;4993320;28;20141;-73
2021/10/08 08:08:53;;;;;;;54.33;29.00;;;;;;;9.23;100.00;102771.78;4997141;28;20061;-73
2021/10/08 08:11:20;;;;;;;55.42;26.52;;;;;;;9.30;100.00;102779.72;4991044;28;20075;-73
2021/10/08 08:13:48;;;;;;;53.25;28.40;;;;;;;9.38;100.00;102781.56;4993891;28;20057;-73
2021/10/08 08:16:14;;;;;;;44.83;27.15;;;;;;;9.46;100.00;102780.88;4988672;28;20515;-74
2021/10/08 08:18:41;;;;;;;53.67;28.13;;;;;;;9.53;100.00;102779.28;4998046;28;20715;-73
2021/10/08 08:21:08;;;;;;;56.10;26.83;;;;;;;9.57;100.00;102781.06;4993527;28;20467;-74
2021/10/08 08:23:34;;;;;;;55.05;28.77;;;;;;;9.62;100.00;102779.44;4991041;28;20110;-72
2021/10/08 08:26:01;;;;;;;50.25;27.58;;;;;;;9.72;100.00;102779.59;4994227;28;20104;-74
2021/10/08 08:28:28;;;;;;;52.35;27.73;;;;;;;9.79;100.00;102781.44;4994295;28;20058;-73
2021/10/08 08:30:56;;;;;;;54.53;28.38;;;;;;;9.81;100.00;102774.56;4993986;28;20081;-70
2021/10/08 08:33:23;;;;;;;48.55;28.25;;;;;;;9.91;100.00;102773.88;4990254;28;20053;-73
2021/10/08 08:35:49;;;;;;;52.10;27.73;;;;;;;9.98;100.00;102769.63;4992459;28;20050;-74
2021/10/08 08:38:16;;;;;;;53.10;28.35;;;;;;;10.03;100.00;102777.50;4994945;28;20053;-75
2021/10/08 08:40:43;;;;;;;61.60;29.13;;;;;;;10.10;100.00;102774.16;4994721;28;20151;-75
2021/10/08 08:43:09;;;;;;;61.25;27.92;;;;;;;10.15;100.00;102767.28;4985375;28;20065;-73
2021/10/08 08:45:35;;;;;;;56.28;28.67;;;;;;;10.27;100.00;102769.22;4990161;28;20061;-71
2021/10/08 08:48:06;;;;;;;47.65;27.48;;;;;;;10.38;100.00;102774.59;4993639;28;20061;-74
2021/10/08 08:50:34;;;;;;;42.33;25.15;;;;;;;10.46;100.00;102772.13;4993076;28;20053;-72
2021/10/08 08:53:01;;;;;;;47.17;23.88;;;;;;;10.64;100.00;102777.56;4992112;28;20057;-73
2021/10/08 08:55:28;;;;;;;48.67;22.90;;;;;;;10.68;100.00;102775.88;4990297;28;20522;-70
2021/10/08 08:57:54;;;;;;;47.67;23.27;;;;;;;10.73;100.00;102768.97;4999362;28;20508;-75
2021/10/08 09:00:22;;;;;;;40.88;20.40;;;;;;;10.83;100.00;102772.59;4993042;28;20046;-72
2021/10/08 09:02:57;;;;;;;38.65;19.33;;;;;;;10.89;100.00;102770.06;4990655;28;20065;-73
2021/10/08 09:05:26;;;;;;;35.97;18.27;;;;;;;10.93;100.00;102771.84;4994818;28;20060;-72
2021/10/08 09:07:57;;;;;;;35.60;19.05;;;;;;;11.01;100.00;102769.34;4995390;28;20053;-70
2021/10/08 09:10:25;;;;;;;35.60;20.33;;;;;;;11.08;100.00;102762.50;4993070;28;20687;-74
2021/10/08 09:12:56;;;;;;;43.78;21.63;;;;;;;11.10;100.00;102760.75;4991585;28;20698;-71
2021/10/08 09:15:23;;;;;;;41.90;21.08;;;;;;;11.14;100.00;102765.16;4988100;28;20065;-74
2021/10/08 09:17:50;;;;;;;40.58;20.92;;;;;;;11.19;100.00;102764.34;4990137;28;20053;-71
2021/10/08 09:20:17;;;;;;;34.92;20.52;;;;;;;11.24;100.00;102768.72;4990281;28;20050;-73
2021/10/08 09:22:51;;;;;;;39.92;20.92;;;;;;;11.30;100.00;102763.59;4998831;28;20060;-73
2021/10/08 09:25:22;;;;;;;37.35;20.70;;;;;;;11.43;100.00;102768.03;4997642;28;20046;-73
2021/10/08 09:27:50;;;;;;;33.13;17.90;;;;;;;11.56;99.41;102762.97;4991756;28;20045;-74
2021/10/08 09:30:17;;;;;;;33.45;16.17;;;;;;;11.64;97.84;102761.28;5003551;28;20039;-73
2021/10/08 09:32:46;;;;;;;28.73;15.98;;;;;;;11.68;97.56;102765.69;4997503;28;20052;-73
2021/10/08 09:35:15;;;;;;;29.13;16.92;;;;;;;11.74;97.63;102765.72;4994864;28;20062;-74
2021/10/08 09:37:42;;;;;;;24.55;13.73;;;;;;;11.85;96.73;102763.22;4990636;28;20431;-73
2021/10/08 09:40:30;;;;;;;30.95;15.63;;;;;;;11.87;96.61;102755.41;4998752;28;20055;-74
2021/10/08 09:43:04;;;;;;;23.98;14.10;;;;;;;11.92;96.47;102751.97;4995208;28;20149;-74
2021/10/08 09:45:38;;;;;;;21.13;10.75;;;;;;;11.99;96.15;102758.16;4997347;28;20054;-72
2021/10/08 09:48:05;;;;;;;24.03;12.87;;;;;;;12.06;95.63;102759.06;4996262;28;20058;-71
2021/10/08 09:50:32;;;;;;;22.60;12.00;;;;;;;12.13;95.66;102755.63;4993672;28;20064;-74
2021/10/08 09:53:13;;;;;;;21.98;11.45;;;;;;;12.20;95.11;102756.56;4992073;28;20906;-74
2021/10/08 09:55:42;;;;;;;16.40;10.27;;;;;;;12.32;93.66;102748.81;4991512;28;20045;-74
2021/10/08 09:58:09;;;;;;;18.23;10.57;;;;;;;12.42;92.75;102748.00;4990730;28;20060;-71
2021/10/08 10:00:49;;;;;;;17.88;10.20;;;;;;;12.46;92.57;102748.00;5000365;28;20790;-72
2021/10/08 10:03:17;;;;;;;13.93;8.95;;;;;;;12.48;90.88;102744.53;4997195;28;20077;-72
2021/10/08 10:05:44;;;;;;;15.82;9.35;;;;;;;12.57;90.98;102741.09;5002686;28;20777;-73
2021/10/08 10:08:12;;;;;;;18.30;8.90;;;;;;;12.69;90.81;102741.16;5005828;28;20574;-72
2021/10/08 10:10:40;;;;;;;13.80;9.13;;;;;;;12.79;89.08;102744.66;4998182;28;20508;-73
2021/10/08 10:13:09;;;;;;;15.68;8.82;;;;;;;12.79;88.65;102747.28;4998891;28;20057;-72
2021/10/08 10:15:37;;;;;;;13.80;8.90;;;;;;;12.87;88.39;102739.47;4992704;28;20061;-73
2021/10/08 10:18:05;;;;;;;16.10;7.88;;;;;;;12.95;88.30;102748.19;4994499;28;20050;-71
2021/10/08 10:20:34;;;;;;;15.05;8.52;;;;;;;13.04;87.66;102743.00;4991464;28;20056;-73
2021/10/08 10:23:02;;;;;;;13.02;8.05;;;;;;;13.10;86.78;102751.75;4985673;28;20085;-73
2021/10/08 10:25:29;;;;;;;14.10;7.95;;;;;;;13.11;86.72;102753.50;4991526;28;20050;-71
2021/10/08 10:27:57;;;;;;;18.80;8.25;;;;;;;13.15;86.37;102744.78;4990240;28;20057;-72
2021/10/08 10:30:23;;;;;;;14.80;8.95;;;;;;;13.18;86.65;102745.66;4993069;28;20054;-71
2021/10/08 10:32:51;;;;;;;15.77;8.88;;;;;;;13.29;85.61;102742.19;4991135;28;20057;-73
2021/10/08 10:35:45;;;;;;;11.50;7.60;;;;;;;13.41;83.86;102741.38;4991574;28;20165;-73
2021/10/08 10:38:32;;;;;;;16.63;8.07;;;;;;;13.40;84.34;102745.72;4994055;28;20063;-73
2021/10/08 10:41:24;;;;;;;14.93;8.20;;;;;;;13.50;82.95;102741.38;4995768;28;20069;-71
2021/10/08 10:43:55;;;;;;;14.02;8.30;;;;;;;13.56;83.14;102730.06;4992747;28;20065;-73
2021/10/08 10:46:32;;;;;;;12.70;7.82;;;;;;;13.64;81.93;102729.19;4988311;28;20053;-75
2021/10/08 10:49:44;;;;;;;14.35;8.10;;;;;;;13.72;81.96;102725.72;4990079;28;20057;-73
2021/10/08 10:52:14;;;;;;;13.13;7.25;;;;;;;13.80;80.65;102724.81;4980707;28;20192;-76
2021/10/08 10:55:09;;;;;;;14.73;7.95;;;;;;;13.84;80.15;102723.06;4990060;28;20060;-74
2021/10/08 10:57:57;;;;;;;15.07;7.90;;;;;;;13.89;80.99;102729.19;4991899;28;20050;-74
2021/10/08 11:00:29;;;;;;;12.20;7.95;;;;;;;13.96;79.29;102724.81;4990356;28;20061;-75
2021/10/08 11:03:12;;;;;;;13.77;8.05;;;;;;;13.97;80.48;102718.72;4986942;28;20091;-77
2021/10/08 11:05:40;;;;;;;17.88;7.97;;;;;;;14.04;79.95;102712.59;4994401;28;20652;-74
2021/10/08 11:08:12;;;;;;;13.27;6.93;;;;;;;14.05;79.20;102708.22;4994675;28;20053;-75
2021/10/08 11:10:46;;;;;;;13.00;7.63;;;;;;;14.22;80.27;102713.41;4991993;28;20860;-74
2021/10/08 11:13:30;;;;;;;24.70;9.63;;;;;;;14.27;78.34;102712.53;4995487;28;20054;-74
2021/10/08 11:16:01;;;;;;;14.07;8.07;;;;;;;14.29;78.83;102708.16;4991175;28;20068;-74
2021/10/08 11:18:45;;;;;;;9.13;5.80;;;;;;;14.32;77.03;102704.66;4993248;28;21400;-74